Disclaimer

Please do not use the information listed here in-flight or in-navigation, as they are not provided to us by the airports but are provided by volunteers, so they might be outdated.

Search


Regions


Airport information page

Radio informations:
CON - 134.55 MHz

Airport informations:
Latitude: 58° 25' 35.20" N
Longitude: 012° 42' 51.80" E
Elevation: 181 feet - 55 meters
Operating hours: Remarks
Operating agency: Military
Timezone: UTC+1(+2DT) - Last Sunday in March to last Sunday in October
Fuel: N/A

Runway information:
01/19 - 7428 x 131 feet< - >2264 x 40 meters
11/29 - 6342 x 131 feet< - >1933 x 40 meters

Recent METARs:
ESIB 160550Z 16007KT 9999 FEW011 05/05 Q1033
ESIB 160620Z 16004KT 9999 FEW011 04/04 Q1033
ESIB 160650Z VRB01KT 9999 MIFG NSC 04/03 Q1033

Airport on the map: